Spirit of New Zealand — ZMSV — position and weather

sailwx.info

Track history (hours):
 
Tides and Currents Weather Stations Pressure Air Temp Water Temp Dewpoint Dewpoint Depression Visibility Wind Speed Wind Dir Waves Ship Positions

Spirit of New Zealand

Last reported at 2019-Jul-28 22:10 UTC. Time now 2019-Aug-22 09:39 UTC.
Position S 36°23' E 174°53'.
Warning: this ship's position is 24 days out of date.

Length 37 m; draft 4.1 m.

Type: Passenger vessel. MMSI: 512201000.

Date/timePositionNaut miles runAvg speedWind from/ knotsBaromVisibWave heightAir tempDewpointWater temp
2019-Jul-28 22:10S 36°23' E 174°53'9 0.6
2019-Jul-28 07:33S 36°32' E 174°51'1 9.4
2019-Jul-28 07:27S 36°33' E 174°51'4 9.7
2019-Jul-28 07:00S 36°37' E 174°52'5 9.2
2019-Jul-28 06:31S 36°41' E 174°51'5 9.2
2019-Jul-28 05:57S 36°46' E 174°49'4 8.8
2019-Jul-28 05:30S 36°50' E 174°49'3 1.2
2019-Jul-28 03:18S 36°50' E 174°46'0 1.1
2019-Jul-28 03:00S 36°50' E 174°46'8 7.8
2019-Jul-28 01:59S 36°50' E 174°56'3 5.8
2019-Jul-28 01:30S 36°50' E 174°59'3 1.8
2019-Jul-27 23:46S 36°51' E 175°03'1 3.2
2019-Jul-27 23:23S 36°52' E 175°04'1 2.7
2019-Jul-27 22:57S 36°52' E 175°06'0 0.4
2019-Jul-27 22:24S 36°52' E 175°06'0 0.0
2019-Jul-27 05:07S 36°52' E 175°06'1 8.5
2019-Jul-27 05:00S 36°51' E 175°05'3 6.0
2019-Jul-27 04:29S 36°51' E 175°01'2 4.2
2019-Jul-27 04:00S 36°51' E 174°58'2 4.3
2019-Jul-27 03:30S 36°50' E 174°56'4 7.7
2019-Jul-27 03:00S 36°49' E 174°51'4 4.3
2019-Jul-27 02:00S 36°50' E 174°46'0 0.0
2019-Jul-27 01:30S 36°50' E 174°46'0 0.0
2019-Jul-27 01:00S 36°50' E 174°46'0 0.0
2019-Jul-27 00:30S 36°50' E 174°46'0 0.0
2019-Jul-27 00:00S 36°50' E 174°46'0 0.0
2019-Jul-26 23:30S 36°50' E 174°46'0 0.0
2019-Jul-26 23:00S 36°50' E 174°46'0 0.0
2019-Jul-26 22:30S 36°50' E 174°46'0 0.0
2019-Jul-26 22:00S 36°50' E 174°46'1 1.1
2019-Jul-26 21:30S 36°50' E 174°46'0 0.0
2019-Jul-26 18:58S 36°51' E 174°46'0 0.0
2019-Jul-26 03:52S 36°50' E 174°46'2 2.2
2019-Jul-26 02:49S 36°50' E 174°43'2 2.9
2019-Jul-26 02:00S 36°50' E 174°46'5 9.8
2019-Jul-26 01:29S 36°49' E 174°52'510.3
2019-Jul-26 01:00S 36°50' E 174°58'3 3.0
2019-Jul-26 00:10S 36°49' E 175°02'0 0.0
2019-Jul-25 23:49S 36°49' E 175°02'0 0.0
2019-Jul-25 23:13S 36°49' E 175°02'0 0.0
2019-Jul-25 22:52S 36°49' E 175°02'0 0.0
2019-Jul-25 21:52S 36°49' E 175°02'0 0.0
2019-Jul-25 21:25S 36°49' E 175°02'0 0.0
2019-Jul-25 20:55S 36°49' E 175°02'0 0.0
2019-Jul-25 18:49S 36°49' E 175°02'0 0.0
2019-Jul-25 18:07S 36°49' E 175°02'0 0.0
2019-Jul-25 17:52S 36°49' E 175°02'0 0.0
2019-Jul-25 17:13S 36°49' E 175°02'0 0.0
2019-Jul-25 16:55S 36°49' E 175°02'0 0.0
2019-Jul-25 16:25S 36°49' E 175°02'0 0.0
2019-Jul-25 15:46S 36°49' E 175°02'0 0.0
2019-Jul-25 15:10S 36°49' E 175°02'0 0.0
2019-Jul-25 14:55S 36°49' E 175°02'0 0.0
2019-Jul-25 14:19S 36°49' E 175°02'0 0.0
2019-Jul-25 13:40S 36°49' E 175°02'0 0.0
2019-Jul-25 13:19S 36°49' E 175°02'0 0.0
2019-Jul-25 12:52S 36°49' E 175°02'0 0.0
2019-Jul-25 12:28S 36°49' E 175°02'0 0.0
2019-Jul-25 11:49S 36°49' E 175°02'0 0.0
2019-Jul-25 11:25S 36°49' E 175°02'0 0.0
2019-Jul-25 10:34S 36°49' E 175°02'0 0.1
2019-Jul-25 10:28S 36°49' E 175°02'0 0.0
2019-Jul-25 09:58S 36°49' E 175°02'0 0.0
2019-Jul-25 09:16S 36°49' E 175°02'0 0.0
2019-Jul-25 08:31S 36°49' E 175°02'0 0.0
2019-Jul-25 08:01S 36°49' E 175°02'0 0.0
2019-Jul-25 06:22S 36°49' E 175°02'0 0.0
2019-Jul-25 05:28S 36°49' E 175°02'0 0.1
2019-Jul-25 04:56S 36°49' E 175°02'3 6.6
2019-Jul-25 04:30S 36°49' E 174°58'5 7.9
2019-Jul-25 03:50S 36°44' E 174°56'3 8.1
2019-Jul-25 03:30S 36°41' E 174°56'4 8.5
2019-Jul-25 03:01S 36°37' E 174°57'8 8.0
2019-Jul-25 02:01S 36°30' E 174°52'7 0.2
2019-Jul-23 22:55S 36°25' E 174°47'4 0.2
2019-Jul-22 23:41S 36°28' E 174°50'1 1.2
2019-Jul-22 22:39S 36°27' E 174°51'1 4.3
2019-Jul-22 22:29S 36°27' E 174°50'5 0.2
2019-Jul-22 02:39S 36°32' E 174°51'2 9.3
2019-Jul-22 02:26S 36°34' E 174°51'4 9.5
2019-Jul-22 02:00S 36°38' E 174°52'5 9.3
2019-Jul-22 01:30S 36°42' E 174°50'5 9.5
2019-Jul-22 01:00S 36°47' E 174°48'3 6.9
2019-Jul-22 00:30S 36°50' E 174°48'1 1.4
2019-Jul-21 23:33S 36°50' E 174°46'0 0.2
2019-Jul-21 23:12S 36°50' E 174°46'0 0.1
2019-Jul-21 23:00S 36°50' E 174°46'0 0.0
2019-Jul-21 22:30S 36°50' E 174°46'1 0.0
2019-Jul-20 23:53S 36°50' E 174°46'0 1.1
2019-Jul-20 23:29S 36°50' E 174°46'2 4.9
2019-Jul-20 23:00S 36°50' E 174°49'1 1.0
2019-Jul-20 22:30S 36°50' E 174°49'3 5.3
2019-Jul-20 22:00S 36°50' E 174°46'0 0.1
2019-Jul-20 18:50S 36°50' E 174°46'0 1.0
2019-Jul-20 18:30S 36°50' E 174°46'2 3.5
2019-Jul-20 17:58S 36°51' E 174°48'0 0.1
2019-Jul-20 17:28S 36°51' E 174°48'0 0.0
2019-Jul-20 16:58S 36°51' E 174°48'0 0.1
2019-Jul-20 16:25S 36°51' E 174°48'0 0.0
2019-Jul-20 15:58S 36°51' E 174°48'0 0.0
2019-Jul-20 15:28S 36°51' E 174°48'0 0.0
2019-Jul-20 14:58S 36°51' E 174°48'0 0.1
2019-Jul-20 14:25S 36°51' E 174°48'0 0.0
2019-Jul-20 13:58S 36°51' E 174°48'0 0.0
2019-Jul-20 13:28S 36°51' E 174°48'0 0.0
2019-Jul-20 12:58S 36°51' E 174°48'0 0.0
2019-Jul-20 12:28S 36°51' E 174°48'0 0.0
2019-Jul-20 11:52S 36°51' E 174°48'0 0.0
2019-Jul-20 11:28S 36°51' E 174°48'0 0.0
2019-Jul-20 10:58S 36°51' E 174°48'0 0.0
2019-Jul-20 10:28S 36°51' E 174°48'0 0.0
2019-Jul-20 09:58S 36°51' E 174°48'0 0.1
2019-Jul-20 09:28S 36°51' E 174°48'0 0.0
2019-Jul-20 08:55S 36°51' E 174°48'0 0.0
2019-Jul-20 08:28S 36°51' E 174°48'0 0.0
2019-Jul-20 07:58S 36°51' E 174°48'0 0.0
2019-Jul-20 07:28S 36°51' E 174°48'0 0.0
2019-Jul-20 06:58S 36°51' E 174°48'0 0.0
2019-Jul-20 06:28S 36°51' E 174°48'0 0.0
2019-Jul-20 05:58S 36°51' E 174°48'0 0.0
2019-Jul-20 05:28S 36°51' E 174°48'0 0.1
2019-Jul-20 04:58S 36°51' E 174°48'0 0.2
2019-Jul-20 04:30S 36°51' E 174°48'2 4.5
2019-Jul-20 04:00S 36°50' E 174°45'2 3.6
2019-Jul-20 03:30S 36°50' E 174°48'2 4.3
2019-Jul-20 03:00S 36°49' E 174°50'4 7.2
2019-Jul-20 02:30S 36°45' E 174°50'2 5.0
2019-Jul-20 02:00S 36°43' E 174°51'3 5.3
2019-Jul-20 01:30S 36°41' E 174°52'3 5.8
2019-Jul-20 01:00S 36°38' E 174°52'2 4.8
2019-Jul-20 00:30S 36°35' E 174°52'3 6.4
2019-Jul-20 00:00S 36°32' E 174°51'3 6.3
2019-Jul-19 23:30S 36°29' E 174°50'4 6.3
2019-Jul-19 22:56S 36°27' E 174°47'2 0.1
2019-Jul-19 03:24S 36°29' E 174°47'  
Track history (hours):
 
Tides and Currents Weather Stations Pressure Air Temp Water Temp Dewpoint Dewpoint Depression Visibility Wind Speed Wind Dir Waves Ship Positions

Spirit of New Zealand

Last reported at 2019-Jul-28 22:10 UTC. Time now 2019-Aug-22 09:39 UTC.
Position S 36°23' E 174°53'.
Warning: this ship's position is 24 days out of date.

Length 37 m; draft 4.1 m.

Type: Passenger vessel. MMSI: 512201000.

Date/timePositionNaut miles runAvg speedWind from/ knotsBaromVisibWave heightAir tempDewpointWater temp
2019-Jul-28 22:10S 36°23' E 174°53'9 0.6
2019-Jul-28 07:33S 36°32' E 174°51'1 9.4
2019-Jul-28 07:27S 36°33' E 174°51'4 9.7
2019-Jul-28 07:00S 36°37' E 174°52'5 9.2
2019-Jul-28 06:31S 36°41' E 174°51'5 9.2
2019-Jul-28 05:57S 36°46' E 174°49'4 8.8
2019-Jul-28 05:30S 36°50' E 174°49'3 1.2
2019-Jul-28 03:18S 36°50' E 174°46'0 1.1
2019-Jul-28 03:00S 36°50' E 174°46'8 7.8
2019-Jul-28 01:59S 36°50' E 174°56'3 5.8
2019-Jul-28 01:30S 36°50' E 174°59'3 1.8
2019-Jul-27 23:46S 36°51' E 175°03'1 3.2
2019-Jul-27 23:23S 36°52' E 175°04'1 2.7
2019-Jul-27 22:57S 36°52' E 175°06'0 0.4
2019-Jul-27 22:24S 36°52' E 175°06'0 0.0
2019-Jul-27 05:07S 36°52' E 175°06'1 8.5
2019-Jul-27 05:00S 36°51' E 175°05'3 6.0
2019-Jul-27 04:29S 36°51' E 175°01'2 4.2
2019-Jul-27 04:00S 36°51' E 174°58'2 4.3
2019-Jul-27 03:30S 36°50' E 174°56'4 7.7
2019-Jul-27 03:00S 36°49' E 174°51'4 4.3
2019-Jul-27 02:00S 36°50' E 174°46'0 0.0
2019-Jul-27 01:30S 36°50' E 174°46'0 0.0
2019-Jul-27 01:00S 36°50' E 174°46'0 0.0
2019-Jul-27 00:30S 36°50' E 174°46'0 0.0
2019-Jul-27 00:00S 36°50' E 174°46'0 0.0
2019-Jul-26 23:30S 36°50' E 174°46'0 0.0
2019-Jul-26 23:00S 36°50' E 174°46'0 0.0
2019-Jul-26 22:30S 36°50' E 174°46'0 0.0
2019-Jul-26 22:00S 36°50' E 174°46'1 1.1
2019-Jul-26 21:30S 36°50' E 174°46'0 0.0
2019-Jul-26 18:58S 36°51' E 174°46'0 0.0
2019-Jul-26 03:52S 36°50' E 174°46'2 2.2
2019-Jul-26 02:49S 36°50' E 174°43'2 2.9
2019-Jul-26 02:00S 36°50' E 174°46'5 9.8
2019-Jul-26 01:29S 36°49' E 174°52'510.3
2019-Jul-26 01:00S 36°50' E 174°58'3 3.0
2019-Jul-26 00:10S 36°49' E 175°02'0 0.0
2019-Jul-25 23:49S 36°49' E 175°02'0 0.0
2019-Jul-25 23:13S 36°49' E 175°02'0 0.0
2019-Jul-25 22:52S 36°49' E 175°02'0 0.0
2019-Jul-25 21:52S 36°49' E 175°02'0 0.0
2019-Jul-25 21:25S 36°49' E 175°02'0 0.0
2019-Jul-25 20:55S 36°49' E 175°02'0 0.0
2019-Jul-25 18:49S 36°49' E 175°02'0 0.0
2019-Jul-25 18:07S 36°49' E 175°02'0 0.0
2019-Jul-25 17:52S 36°49' E 175°02'0 0.0
2019-Jul-25 17:13S 36°49' E 175°02'0 0.0
2019-Jul-25 16:55S 36°49' E 175°02'0 0.0
2019-Jul-25 16:25S 36°49' E 175°02'0 0.0
2019-Jul-25 15:46S 36°49' E 175°02'0 0.0
2019-Jul-25 15:10S 36°49' E 175°02'0 0.0
2019-Jul-25 14:55S 36°49' E 175°02'0 0.0
2019-Jul-25 14:19S 36°49' E 175°02'0 0.0
2019-Jul-25 13:40S 36°49' E 175°02'0 0.0
2019-Jul-25 13:19S 36°49' E 175°02'0 0.0
2019-Jul-25 12:52S 36°49' E 175°02'0 0.0
2019-Jul-25 12:28S 36°49' E 175°02'0 0.0
2019-Jul-25 11:49S 36°49' E 175°02'0 0.0
2019-Jul-25 11:25S 36°49' E 175°02'0 0.0
2019-Jul-25 10:34S 36°49' E 175°02'0 0.1
2019-Jul-25 10:28S 36°49' E 175°02'0 0.0
2019-Jul-25 09:58S 36°49' E 175°02'0 0.0
2019-Jul-25 09:16S 36°49' E 175°02'0 0.0
2019-Jul-25 08:31S 36°49' E 175°02'0 0.0
2019-Jul-25 08:01S 36°49' E 175°02'0 0.0
2019-Jul-25 06:22S 36°49' E 175°02'0 0.0
2019-Jul-25 05:28S 36°49' E 175°02'0 0.1
2019-Jul-25 04:56S 36°49' E 175°02'3 6.6
2019-Jul-25 04:30S 36°49' E 174°58'5 7.9
2019-Jul-25 03:50S 36°44' E 174°56'3 8.1
2019-Jul-25 03:30S 36°41' E 174°56'4 8.5
2019-Jul-25 03:01S 36°37' E 174°57'8 8.0
2019-Jul-25 02:01S 36°30' E 174°52'7 0.2
2019-Jul-23 22:55S 36°25' E 174°47'4 0.2
2019-Jul-22 23:41S 36°28' E 174°50'1 1.2
2019-Jul-22 22:39S 36°27' E 174°51'1 4.3
2019-Jul-22 22:29S 36°27' E 174°50'5 0.2
2019-Jul-22 02:39S 36°32' E 174°51'2 9.3
2019-Jul-22 02:26S 36°34' E 174°51'4 9.5
2019-Jul-22 02:00S 36°38' E 174°52'5 9.3
2019-Jul-22 01:30S 36°42' E 174°50'5 9.5
2019-Jul-22 01:00S 36°47' E 174°48'3 6.9
2019-Jul-22 00:30S 36°50' E 174°48'1 1.4
2019-Jul-21 23:33S 36°50' E 174°46'0 0.2
2019-Jul-21 23:12S 36°50' E 174°46'0 0.1
2019-Jul-21 23:00S 36°50' E 174°46'0 0.0
2019-Jul-21 22:30S 36°50' E 174°46'1 0.0
2019-Jul-20 23:53S 36°50' E 174°46'0 1.1
2019-Jul-20 23:29S 36°50' E 174°46'2 4.9
2019-Jul-20 23:00S 36°50' E 174°49'1 1.0
2019-Jul-20 22:30S 36°50' E 174°49'3 5.3
2019-Jul-20 22:00S 36°50' E 174°46'0 0.1
2019-Jul-20 18:50S 36°50' E 174°46'0 1.0
2019-Jul-20 18:30S 36°50' E 174°46'2 3.5
2019-Jul-20 17:58S 36°51' E 174°48'0 0.1
2019-Jul-20 17:28S 36°51' E 174°48'0 0.0
2019-Jul-20 16:58S 36°51' E 174°48'0 0.1
2019-Jul-20 16:25S 36°51' E 174°48'0 0.0
2019-Jul-20 15:58S 36°51' E 174°48'0 0.0
2019-Jul-20 15:28S 36°51' E 174°48'0 0.0
2019-Jul-20 14:58S 36°51' E 174°48'0 0.1
2019-Jul-20 14:25S 36°51' E 174°48'0 0.0
2019-Jul-20 13:58S 36°51' E 174°48'0 0.0
2019-Jul-20 13:28S 36°51' E 174°48'0 0.0
2019-Jul-20 12:58S 36°51' E 174°48'0 0.0
2019-Jul-20 12:28S 36°51' E 174°48'0 0.0
2019-Jul-20 11:52S 36°51' E 174°48'0 0.0
2019-Jul-20 11:28S 36°51' E 174°48'0 0.0
2019-Jul-20 10:58S 36°51' E 174°48'0 0.0
2019-Jul-20 10:28S 36°51' E 174°48'0 0.0
2019-Jul-20 09:58S 36°51' E 174°48'0 0.1
2019-Jul-20 09:28S 36°51' E 174°48'0 0.0
2019-Jul-20 08:55S 36°51' E 174°48'0 0.0
2019-Jul-20 08:28S 36°51' E 174°48'0 0.0
2019-Jul-20 07:58S 36°51' E 174°48'0 0.0
2019-Jul-20 07:28S 36°51' E 174°48'0 0.0
2019-Jul-20 06:58S 36°51' E 174°48'0 0.0
2019-Jul-20 06:28S 36°51' E 174°48'0 0.0
2019-Jul-20 05:58S 36°51' E 174°48'0 0.0
2019-Jul-20 05:28S 36°51' E 174°48'0 0.1
2019-Jul-20 04:58S 36°51' E 174°48'0 0.2
2019-Jul-20 04:30S 36°51' E 174°48'2 4.5
2019-Jul-20 04:00S 36°50' E 174°45'2 3.6
2019-Jul-20 03:30S 36°50' E 174°48'2 4.3
2019-Jul-20 03:00S 36°49' E 174°50'4 7.2
2019-Jul-20 02:30S 36°45' E 174°50'2 5.0
2019-Jul-20 02:00S 36°43' E 174°51'3 5.3
2019-Jul-20 01:30S 36°41' E 174°52'3 5.8
2019-Jul-20 01:00S 36°38' E 174°52'2 4.8
2019-Jul-20 00:30S 36°35' E 174°52'3 6.4
2019-Jul-20 00:00S 36°32' E 174°51'3 6.3
2019-Jul-19 23:30S 36°29' E 174°50'4 6.3
2019-Jul-19 22:56S 36°27' E 174°47'2 0.1
2019-Jul-19 03:24S 36°29' E 174°47'  

Dump ship's entire track history